Time;durP1;ratioP1;P1;durP2;ratioP2;P2;SDS_P1;SDS_P2;PMS_P1;PMS_P2;Temp;Humidity;BMP_temperature;BMP_pressure;BME280_temperature;BME280_humidity;BME280_pressure;Samples;Min_cycle;Max_cycle;Signal;HPM_P1;HPM_P2
2022/03/10 00:00:07;;;;;;;33.47;11.68;;;-1.10;99.90;;;;;;4914523;29;20020;-79
2022/03/10 00:02:33;;;;;;;26.83;10.00;;;-2.30;99.90;;;;;;4917381;29;20028;-80
2022/03/10 00:04:58;;;;;;;32.60;11.02;;;-2.10;99.90;;;;;;4923339;29;20039;-79
2022/03/10 00:07:24;;;;;;;27.10;11.38;;;-2.20;99.90;;;;;;4939970;29;20024;-79
2022/03/10 00:09:50;;;;;;;29.52;10.57;;;-2.40;99.90;;;;;;4935728;29;20032;-79
2022/03/10 00:12:15;;;;;;;26.33;10.55;;;-2.10;99.90;;;;;;4917642;29;20418;-78
2022/03/10 00:14:41;;;;;;;27.88;9.23;;;-1.70;99.90;;;;;;4938471;29;20504;-80
2022/03/10 00:17:07;;;;;;;25.58;10.27;;;-1.80;99.90;;;;;;4923700;29;20036;-79
2022/03/10 00:19:33;;;;;;;29.17;11.60;;;-2.00;99.90;;;;;;4932388;29;20031;-79
2022/03/10 00:21:59;;;;;;;28.90;10.82;;;-2.40;99.90;;;;;;4916976;29;20189;-79
2022/03/10 00:24:24;;;;;;;25.55;8.90;;;-2.20;99.90;;;;;;4918421;29;20389;-79
2022/03/10 00:26:50;;;;;;;27.65;10.75;;;-2.50;99.90;;;;;;4917200;29;20036;-78
2022/03/10 00:29:16;;;;;;;35.78;11.50;;;-2.60;99.90;;;;;;4916226;29;20070;-79
2022/03/10 00:31:41;;;;;;;23.60;9.13;;;-2.10;99.90;;;;;;4924134;29;20039;-80
2022/03/10 00:34:08;;;;;;;23.48;9.60;;;-2.50;99.90;;;;;;4942125;29;20032;-80
2022/03/10 00:36:34;;;;;;;30.15;10.82;;;-2.40;99.90;;;;;;4937864;29;20338;-79
2022/03/10 00:38:59;;;;;;;34.80;11.27;;;-2.70;99.90;;;;;;4926887;29;20035;-79
2022/03/10 00:41:25;;;;;;;29.20;10.32;;;-1.90;99.90;;;;;;4933167;29;20055;-79
2022/03/10 00:43:50;;;;;;;28.50;11.05;;;-1.70;99.90;;;;;;4916792;29;20551;-79
2022/03/10 00:46:16;;;;;;;28.58;10.93;;;-2.00;99.90;;;;;;4918021;29;20401;-79
2022/03/10 00:48:42;;;;;;;29.75;10.18;;;-1.90;99.90;;;;;;4915656;29;20024;-80
2022/03/10 00:51:08;;;;;;;25.15;9.82;;;-1.90;99.90;;;;;;4930822;29;20032;-80
2022/03/10 00:53:34;;;;;;;25.23;10.70;;;-2.60;99.90;;;;;;4930122;29;20595;-80
2022/03/10 00:56:00;;;;;;;25.38;9.27;;;-1.90;99.90;;;;;;4916998;29;20083;-79
2022/03/10 00:58:26;;;;;;;25.77;10.15;;;-1.90;99.90;;;;;;4916759;29;20051;-82
2022/03/10 01:00:51;;;;;;;29.67;11.25;;;-2.70;99.90;;;;;;4929417;29;20095;-81
2022/03/10 01:03:18;;;;;;;35.60;12.93;;;-2.40;99.90;;;;;;4917540;29;20063;-80
2022/03/10 01:05:44;;;;;;;30.77;10.60;;;-2.50;99.90;;;;;;4919474;29;20051;-79
2022/03/10 01:08:10;;;;;;;28.33;10.50;;;-2.60;99.90;;;;;;4931227;29;20069;-79
2022/03/10 01:10:35;;;;;;;26.80;10.23;;;-2.60;99.90;;;;;;4917914;29;20541;-79
2022/03/10 01:13:01;;;;;;;22.33;9.82;;;-2.30;99.90;;;;;;4914164;29;20478;-80
2022/03/10 01:15:29;;;;;;;29.08;10.88;;;-1.80;99.90;;;;;;4928442;29;20063;-80
2022/03/10 01:17:58;;;;;;;26.92;10.40;;;-2.40;99.90;;;;;;4930827;29;20470;-80
2022/03/10 01:20:26;;;;;;;29.35;11.18;;;-2.50;99.90;;;;;;4931499;29;20263;-79
2022/03/10 01:22:51;;;;;;;29.20;10.55;;;-2.40;99.90;;;;;;4916323;29;20028;-79
2022/03/10 01:25:18;;;;;;;27.55;10.07;;;-1.90;99.90;;;;;;4915880;29;20035;-81
2022/03/10 01:27:44;;;;;;;32.85;10.75;;;-2.70;99.90;;;;;;4929871;29;20024;-79
2022/03/10 01:30:12;;;;;;;40.75;12.90;;;-2.60;99.90;;;;;;4913694;29;20157;-81
2022/03/10 01:32:37;;;;;;;25.15;10.20;;;-2.70;99.90;;;;;;4913619;29;20027;-79
2022/03/10 01:35:04;;;;;;;29.55;11.13;;;-2.10;99.90;;;;;;4913557;29;20446;-84
2022/03/10 01:37:30;;;;;;;42.63;12.77;;;-2.40;99.90;;;;;;4930646;29;20077;-79
2022/03/10 01:39:56;;;;;;;28.02;12.10;;;-2.30;99.90;;;;;;4932735;29;20081;-80
2022/03/10 01:42:25;;;;;;;30.92;10.65;;;-2.70;99.90;;;;;;4917369;29;20501;-80
2022/03/10 01:44:54;;;;;;;26.85;10.88;;;-2.60;99.90;;;;;;4933513;29;20028;-79
2022/03/10 01:47:20;;;;;;;;;;;-2.40;99.90;;;;;;4918079;29;20052;-79
2022/03/10 01:49:46;;;;;;;19.80;8.80;;;-2.70;99.90;;;;;;4915751;29;20336;-79
2022/03/10 01:52:12;;;;;;;34.75;11.45;;;-2.70;99.90;;;;;;4916304;29;20160;-79
2022/03/10 01:54:41;;;;;;;34.78;11.02;;;-2.20;99.90;;;;;;4933681;29;20569;-80
2022/03/10 01:57:07;;;;;;;29.92;10.27;;;-2.60;99.90;;;;;;4917295;29;20050;-80
2022/03/10 01:59:33;;;;;;;27.67;10.13;;;-2.60;99.90;;;;;;4918517;29;20091;-79
2022/03/10 02:01:59;;;;;;;29.63;10.35;;;-2.60;99.90;;;;;;4918721;29;20382;-80
2022/03/10 02:04:25;;;;;;;31.30;10.00;;;-2.60;99.90;;;;;;4931026;29;20115;-80
2022/03/10 02:06:51;;;;;;;28.02;10.00;;;-2.30;99.90;;;;;;4931269;29;20039;-79
2022/03/10 02:12:01;;;;;;;31.23;11.13;;;-2.50;99.90;;;;;;4916420;29;20091;-80
2022/03/10 02:17:20;;;;;;;33.85;11.93;;;-2.60;99.90;;;;;;4913792;29;20086;-79
2022/03/10 02:19:46;;;;;;;31.45;11.25;;;-3.10;99.90;;;;;;4930454;29;20028;-81
2022/03/10 02:22:14;;;;;;;24.17;9.63;;;-3.00;99.90;;;;;;4916732;29;20036;-80
2022/03/10 02:24:42;;;;;;;37.35;11.82;;;-1.90;99.90;;;;;;4916928;29;20035;-79
2022/03/10 02:27:26;;;;;;;28.92;10.07;;;-1.80;99.90;;;;;;4916417;29;20029;-79
2022/03/10 02:29:59;;;;;;;32.42;9.23;;;-3.30;99.90;;;;;;4914615;29;20056;-80
2022/03/10 02:32:25;;;;;;;27.48;8.25;;;-2.50;99.90;;;;;;4914400;29;20032;-80
2022/03/10 02:34:52;;;;;;;23.73;9.73;;;-2.60;99.90;;;;;;4927686;29;20501;-80
2022/03/10 02:37:19;;;;;;;27.88;11.25;;;-3.10;99.90;;;;;;4931573;29;20032;-82
2022/03/10 02:39:45;;;;;;;27.67;10.48;;;-2.90;99.90;;;;;;4917113;29;20020;-80
2022/03/10 02:42:12;;;;;;;30.65;11.65;;;-2.00;99.90;;;;;;4933324;29;20139;-81
2022/03/10 02:44:46;;;;;;;26.75;10.98;;;-2.90;99.90;;;;;;4919238;29;20056;-82
2022/03/10 02:47:13;;;;;;;28.38;9.85;;;-2.60;99.90;;;;;;4933603;29;20031;-81
2022/03/10 02:49:40;;;;;;;24.05;10.68;;;-2.60;99.90;;;;;;4919753;29;20122;-80
2022/03/10 02:52:07;;;;;;;29.38;10.98;;;-2.50;99.90;;;;;;4918995;29;20052;-83
2022/03/10 02:54:33;;;;;;;27.95;9.40;;;-2.90;99.90;;;;;;4919513;29;20115;-82
2022/03/10 02:56:59;;;;;;;33.35;9.98;;;-3.00;99.90;;;;;;4931855;29;20110;-80
2022/03/10 02:59:25;;;;;;;27.90;9.98;;;-2.50;99.90;;;;;;4930742;29;20039;-81
2022/03/10 03:01:51;;;;;;;32.25;10.18;;;-3.00;99.90;;;;;;4930980;29;20389;-83
2022/03/10 03:04:17;;;;;;;35.72;11.57;;;-2.40;99.90;;;;;;4931284;29;20032;-80
2022/03/10 03:06:42;;;;;;;32.00;11.77;;;-3.20;99.90;;;;;;4932153;29;20378;-84
2022/03/10 03:09:08;;;;;;;28.58;10.13;;;-3.30;99.90;;;;;;4932260;29;20020;-83
2022/03/10 03:11:34;;;;;;;23.30;8.48;;;-2.70;99.90;;;;;;4917244;29;20024;-79
2022/03/10 03:14:01;;;;;;;32.42;11.48;;;-3.00;99.90;;;;;;4947037;28;20034;-80
2022/03/10 03:16:28;;;;;;;31.60;12.38;;;-3.00;99.90;;;;;;4916607;29;20506;-81
2022/03/10 03:18:54;;;;;;;37.42;11.90;;;-3.10;99.90;;;;;;4932172;29;20020;-81
2022/03/10 03:21:20;;;;;;;26.63;11.00;;;-2.70;99.90;;;;;;4918461;29;20031;-80
2022/03/10 03:23:47;;;;;;;38.72;13.15;;;-3.00;99.90;;;;;;4917136;29;20084;-79
2022/03/10 03:26:13;;;;;;;36.38;11.85;;;-2.40;99.90;;;;;;4917723;29;20028;-79
2022/03/10 03:28:38;;;;;;;29.70;11.60;;;-2.80;99.90;;;;;;4916135;29;20024;-81
2022/03/10 03:31:04;;;;;;;29.20;10.95;;;-2.50;99.90;;;;;;4918489;29;20126;-79
2022/03/10 03:33:31;;;;;;;29.92;11.57;;;-3.20;99.90;;;;;;4918655;29;20115;-79
2022/03/10 03:35:57;;;;;;;25.80;11.15;;;-3.80;99.90;;;;;;4917288;29;20060;-79
2022/03/10 03:38:23;;;;;;;28.40;9.70;;;-2.70;99.90;;;;;;4917296;29;20509;-79
2022/03/10 03:40:49;;;;;;;31.30;10.10;;;-3.10;99.90;;;;;;4916423;29;20036;-79
2022/03/10 03:43:15;;;;;;;29.00;10.80;;;-3.60;99.90;;;;;;4916509;29;20048;-80
2022/03/10 03:45:41;;;;;;;25.20;10.57;;;-3.00;99.90;;;;;;4918000;29;20051;-82
2022/03/10 03:48:07;;;;;;;27.67;10.25;;;-3.20;99.90;;;;;;4917325;29;20047;-79
2022/03/10 03:50:32;;;;;;;25.70;10.50;;;-3.30;99.90;;;;;;4915995;29;20076;-80
2022/03/10 03:52:58;;;;;;;24.20;9.77;;;-2.60;99.90;;;;;;4930980;29;20024;-79
2022/03/10 03:55:24;;;;;;;28.63;9.77;;;-3.10;99.90;;;;;;4916352;29;20232;-79
2022/03/10 03:57:49;;;;;;;26.58;8.98;;;-3.10;99.90;;;;;;4916478;29;20036;-80
2022/03/10 04:00:16;;;;;;;24.90;10.15;;;-3.30;99.90;;;;;;4916515;29;20473;-81
2022/03/10 04:02:42;;;;;;;29.83;11.07;;;-4.00;99.90;;;;;;4916280;29;20058;-81
2022/03/10 04:05:08;;;;;;;21.98;8.38;;;-3.70;99.90;;;;;;4914738;29;20038;-86
2022/03/10 04:07:35;;;;;;;24.13;10.52;;;-4.10;99.90;;;;;;4915679;29;20024;-80
2022/03/10 04:10:01;;;;;;;27.52;11.15;;;-3.10;99.90;;;;;;4915711;29;20039;-85
2022/03/10 04:12:27;;;;;;;27.25;11.00;;;-3.60;99.90;;;;;;4914854;29;20121;-85
2022/03/10 04:14:52;;;;;;;29.33;10.57;;;-3.40;99.90;;;;;;4914025;29;20032;-86
2022/03/10 04:17:18;;;;;;;25.05;9.98;;;-3.70;99.90;;;;;;4914142;29;20028;-80
2022/03/10 04:19:44;;;;;;;32.58;10.77;;;-2.80;99.90;;;;;;4915401;29;20032;-89
2022/03/10 04:22:10;;;;;;;29.50;10.10;;;-3.40;99.90;;;;;;4914132;29;20031;-81
2022/03/10 04:24:35;;;;;;;28.80;10.55;;;-3.70;99.90;;;;;;4915303;29;20382;-80
2022/03/10 04:27:01;;;;;;;29.15;10.48;;;-3.30;99.90;;;;;;4913742;29;20043;-80
2022/03/10 04:29:27;;;;;;;33.65;10.82;;;-3.60;99.90;;;;;;4914994;29;20044;-83
2022/03/10 04:31:52;;;;;;;25.75;10.45;;;-3.40;99.90;;;;;;4915292;29;20061;-81
2022/03/10 04:34:18;;;;;;;25.60;9.75;;;-3.70;99.90;;;;;;4930498;29;20162;-80
2022/03/10 04:36:44;;;;;;;28.55;10.48;;;-3.80;99.90;;;;;;4914190;29;20024;-82
2022/03/10 04:39:10;;;;;;;27.60;9.38;;;-3.40;99.90;;;;;;4914691;29;20552;-81
2022/03/10 04:41:36;;;;;;;29.02;11.15;;;-4.10;99.90;;;;;;4915176;29;20056;-81
2022/03/10 04:44:02;;;;;;;26.27;8.93;;;-3.80;99.90;;;;;;4915320;29;20119;-80
2022/03/10 04:46:27;;;;;;;28.05;9.65;;;-4.40;99.90;;;;;;4915136;29;20064;-81
2022/03/10 04:48:53;;;;;;;27.88;9.98;;;-3.50;99.90;;;;;;4913587;29;20028;-79
2022/03/10 04:51:20;;;;;;;27.45;9.75;;;-2.80;99.90;;;;;;4914356;29;20032;-79
2022/03/10 04:53:46;;;;;;;32.75;9.65;;;-3.30;99.90;;;;;;4913501;29;20028;-80
2022/03/10 04:56:12;;;;;;;32.45;11.57;;;-2.60;99.90;;;;;;4913528;29;20106;-80
2022/03/10 04:58:39;;;;;;;34.10;10.98;;;-4.20;99.90;;;;;;4929140;29;20435;-81
2022/03/10 05:01:04;;;;;;;26.85;9.35;;;-3.70;99.90;;;;;;4914791;29;20369;-91
2022/03/10 05:03:33;;;;;;;25.73;9.13;;;-2.80;99.90;;;;;;4913293;29;20027;-79
2022/03/10 05:06:00;;;;;;;33.67;10.05;;;-3.60;99.90;;;;;;4914868;29;20512;-80
2022/03/10 05:08:25;;;;;;;32.00;10.43;;;-3.90;99.90;;;;;;4914989;29;20032;-81
2022/03/10 05:10:51;;;;;;;21.48;8.35;;;-2.60;99.90;;;;;;4913177;29;20621;-81
2022/03/10 05:13:17;;;;;;;26.85;9.80;;;-3.20;99.90;;;;;;4913939;29;20032;-82
2022/03/10 05:15:43;;;;;;;24.77;10.00;;;-3.70;99.90;;;;;;4914834;29;20429;-81
2022/03/10 05:18:08;;;;;;;31.10;10.30;;;-3.90;99.90;;;;;;4929970;29;20024;-86
2022/03/10 05:20:34;;;;;;;42.72;13.13;;;-4.20;99.90;;;;;;4916569;29;20080;-83
2022/03/10 05:23:02;;;;;;;27.35;10.38;;;-4.30;99.90;;;;;;4913452;29;20032;-82
2022/03/10 05:25:35;;;;;;;28.42;10.45;;;-4.40;99.90;;;;;;4914723;29;20584;-84
2022/03/10 05:28:02;;;;;;;30.92;9.63;;;-3.10;99.90;;;;;;4916139;29;20103;-82
2022/03/10 05:30:28;;;;;;;31.42;11.27;;;-4.50;99.90;;;;;;4947858;29;20040;-82
2022/03/10 05:32:54;;;;;;;24.13;9.05;;;-4.60;99.90;;;;;;4915642;29;20100;-84
2022/03/10 05:35:20;;;;;;;28.77;10.30;;;-3.40;99.90;;;;;;4915503;29;20044;-84
2022/03/10 05:37:48;;;;;;;25.40;9.98;;;-4.00;99.90;;;;;;4915030;29;20480;-80
2022/03/10 05:40:17;;;;;;;30.85;9.90;;;-4.00;99.90;;;;;;4914326;29;20036;-84
2022/03/10 05:42:44;;;;;;;32.13;10.70;;;-3.60;99.90;;;;;;4913709;29;20107;-82
2022/03/10 05:45:11;;;;;;;29.73;11.25;;;-3.10;99.90;;;;;;4929456;29;20040;-81
2022/03/10 05:47:38;;;;;;;29.52;9.82;;;-2.90;99.90;;;;;;4913414;29;20478;-82
2022/03/10 05:50:05;;;;;;;32.55;10.70;;;-2.90;99.90;;;;;;4914045;29;20024;-82
2022/03/10 05:52:31;;;;;;;33.72;9.45;;;-4.00;99.90;;;;;;4913954;29;20043;-82
2022/03/10 05:54:57;;;;;;;26.88;9.85;;;-4.20;99.90;;;;;;4914134;29;20051;-80
2022/03/10 05:57:23;;;;;;;28.05;10.73;;;-4.20;99.90;;;;;;4914017;29;20489;-89
2022/03/10 05:59:49;;;;;;;32.97;9.30;;;-3.10;99.90;;;;;;4914687;29;20059;-89
2022/03/10 06:02:18;;;;;;;28.95;10.80;;;-4.00;99.90;;;;;;4914149;29;20032;-85
2022/03/10 06:04:44;;;;;;;35.50;10.32;;;-3.20;99.90;;;;;;4912464;29;20020;-82
2022/03/10 06:07:10;;;;;;;32.05;11.32;;;-3.80;99.90;;;;;;4913337;29;20036;-80
2022/03/10 06:09:36;;;;;;;37.17;13.07;;;-4.10;99.90;;;;;;4913359;29;20020;-80
2022/03/10 06:12:02;;;;;;;30.00;10.88;;;-3.10;99.90;;;;;;4928541;29;20115;-81
2022/03/10 06:14:28;;;;;;;29.38;11.77;;;-4.00;99.90;;;;;;4912319;29;20083;-80
2022/03/10 06:16:54;;;;;;;28.17;10.93;;;-3.30;99.90;;;;;;4913775;29;20134;-79
2022/03/10 06:19:19;;;;;;;23.63;9.57;;;-3.70;99.90;;;;;;4913634;29;20054;-86
2022/03/10 06:21:46;;;;;;;29.52;11.07;;;-3.90;99.90;;;;;;4912083;29;20092;-93
2022/03/10 06:24:12;;;;;;;29.63;11.65;;;-3.40;99.90;;;;;;4911959;29;20113;-80
2022/03/10 06:26:39;;;;;;;31.23;10.48;;;-3.30;99.90;;;;;;4915314;29;20112;-80
2022/03/10 06:29:05;;;;;;;33.28;10.75;;;-3.90;99.90;;;;;;4896951;29;20032;-81
2022/03/10 06:31:31;;;;;;;30.92;10.80;;;-2.40;99.90;;;;;;4917954;29;20032;-89
2022/03/10 06:33:58;;;;;;;27.02;10.02;;;-3.10;99.90;;;;;;4940120;29;20024;-83
2022/03/10 06:36:24;;;;;;;26.95;10.07;;;-3.00;99.90;;;;;;4938793;29;20063;-80
2022/03/10 06:38:50;;;;;;;33.95;11.80;;;-3.10;99.90;;;;;;4939644;29;20020;-80
2022/03/10 06:41:16;;;;;;;33.20;10.75;;;-3.10;99.90;;;;;;4912892;29;20229;-79
2022/03/10 06:43:42;;;;;;;30.83;10.80;;;-2.40;99.90;;;;;;4912932;29;20421;-78
2022/03/10 06:46:07;;;;;;;42.47;11.30;;;-3.20;99.90;;;;;;4910976;29;20340;-78
2022/03/10 06:48:34;;;;;;;29.58;11.77;;;-3.20;99.90;;;;;;4909438;29;20381;-79
2022/03/10 06:51:00;;;;;;;36.25;11.45;;;-2.80;99.90;;;;;;4927234;29;20031;-79
2022/03/10 06:53:26;;;;;;;26.95;10.00;;;-2.40;99.90;;;;;;4912970;29;20024;-79
2022/03/10 06:55:51;;;;;;;33.25;13.07;;;-2.90;99.90;;;;;;4913346;29;20043;-78
2022/03/10 06:58:17;;;;;;;27.60;11.32;;;-2.60;99.90;;;;;;4927219;29;20052;-79
2022/03/10 07:00:43;;;;;;;26.60;10.65;;;-2.60;99.90;;;;;;4912311;29;20103;-79
2022/03/10 07:03:08;;;;;;;30.88;11.65;;;-2.30;99.90;;;;;;4912424;29;20039;-79
2022/03/10 07:05:34;;;;;;;32.15;11.43;;;-2.40;99.90;;;;;;4913036;29;20028;-80
2022/03/10 07:07:59;;;;;;;34.83;11.20;;;-2.20;99.90;;;;;;4911975;29;20425;-78
2022/03/10 07:10:25;;;;;;;31.67;12.10;;;-2.00;99.90;;;;;;4925554;29;20103;-79
2022/03/10 07:12:51;;;;;;;37.92;12.70;;;-1.20;99.90;;;;;;4911369;29;20024;-78
2022/03/10 07:15:17;;;;;;;38.38;12.85;;;-1.10;99.90;;;;;;4910819;29;20040;-78
2022/03/10 07:17:42;;;;;;;32.33;14.48;;;-1.50;99.90;;;;;;4912738;29;20079;-78
2022/03/10 07:20:09;;;;;;;38.88;12.80;;;-1.30;99.90;;;;;;4926415;29;20036;-79
2022/03/10 07:22:36;;;;;;;37.67;14.13;;;-1.10;99.90;;;;;;4916436;29;20020;-79
2022/03/10 07:25:04;;;;;;;40.88;13.48;;;-0.80;99.90;;;;;;4921605;29;20028;-79
2022/03/10 07:27:29;;;;;;;37.60;13.98;;;-0.70;99.90;;;;;;4911925;29;20029;-79
2022/03/10 07:29:55;;;;;;;34.13;12.45;;;-0.50;99.90;;;;;;4910781;29;20057;-79
2022/03/10 07:32:24;;;;;;;34.25;13.23;;;-0.40;99.90;;;;;;4912555;29;20043;-80
2022/03/10 07:34:50;;;;;;;39.15;13.77;;;-0.10;99.90;;;;;;4904916;29;20051;-78
2022/03/10 07:37:16;;;;;;;40.80;12.82;;;0.00;99.90;;;;;;4908514;29;20056;-78
2022/03/10 07:39:42;;;;;;;36.10;14.45;;;0.10;99.90;;;;;;4907127;29;20037;-77
2022/03/10 07:42:08;;;;;;;40.28;15.02;;;0.10;99.90;;;;;;4906174;29;20042;-78
2022/03/10 07:44:34;;;;;;;44.90;15.85;;;0.70;99.90;;;;;;4922051;29;20028;-78
2022/03/10 07:47:00;;;;;;;41.60;15.13;;;0.30;99.90;;;;;;4931278;29;20043;-78
2022/03/10 07:49:25;;;;;;;40.40;14.27;;;0.40;99.90;;;;;;4945829;29;20036;-78
2022/03/10 07:51:51;;;;;;;43.33;14.00;;;0.50;99.90;;;;;;4924260;29;20056;-78
2022/03/10 07:54:17;;;;;;;36.55;13.65;;;0.60;99.90;;;;;;4920206;29;20806;-79
2022/03/10 07:56:43;;;;;;;35.25;13.50;;;0.70;99.90;;;;;;4922896;29;20028;-79
2022/03/10 07:59:09;;;;;;;36.70;14.45;;;0.90;99.90;;;;;;4918435;29;20067;-79
2022/03/10 08:01:34;;;;;;;32.05;12.60;;;1.10;99.90;;;;;;4930714;29;20052;-79
2022/03/10 08:04:00;;;;;;;38.97;12.90;;;1.40;99.90;;;;;;4917768;29;20016;-79
2022/03/10 08:06:27;;;;;;;96.65;34.70;;;1.50;99.90;;;;;;4921782;29;20084;-78
2022/03/10 08:08:54;;;;;;;73.78;27.08;;;1.80;99.90;;;;;;4927870;29;20047;-79
2022/03/10 08:11:19;;;;;;;34.47;13.00;;;2.10;99.90;;;;;;4931139;29;20052;-80
2022/03/10 08:13:48;;;;;;;37.20;13.70;;;2.50;99.90;;;;;;4946958;29;20024;-79
2022/03/10 08:16:14;;;;;;;39.13;14.18;;;2.80;99.90;;;;;;4931395;29;20019;-78
2022/03/10 08:18:40;;;;;;;37.03;13.07;;;3.10;99.90;;;;;;4931878;29;20115;-79
2022/03/10 08:21:06;;;;;;;35.00;14.15;;;3.30;99.90;;;;;;4933019;29;20075;-80
2022/03/10 08:23:32;;;;;;;39.47;14.82;;;3.50;99.90;;;;;;4964362;29;20113;-79
2022/03/10 08:25:58;;;;;;;38.42;14.50;;;3.70;99.90;;;;;;4948341;29;20043;-79
2022/03/10 08:28:26;;;;;;;39.53;15.25;;;3.90;99.90;;;;;;4966183;29;20056;-79
2022/03/10 08:30:53;;;;;;;37.75;15.95;;;4.10;99.90;;;;;;4942711;29;20119;-80
2022/03/10 08:33:18;;;;;;;38.92;14.63;;;4.20;99.90;;;;;;4946516;29;20046;-79
2022/03/10 08:35:45;;;;;;;35.30;13.32;;;4.30;99.90;;;;;;4963002;29;20039;-78
2022/03/10 08:38:11;;;;;;;35.70;13.25;;;4.40;99.90;;;;;;4945597;29;20024;-79
2022/03/10 08:40:37;;;;;;;34.95;13.75;;;4.50;99.90;;;;;;4965417;29;20015;-79
2022/03/10 08:43:05;;;;;;;31.85;12.75;;;4.70;99.90;;;;;;4951311;29;20587;-78
2022/03/10 08:45:31;;;;;;;36.80;12.73;;;4.90;99.90;;;;;;4948473;29;20052;-78
2022/03/10 08:47:57;;;;;;;35.47;12.38;;;5.10;96.80;;;;;;4944889;29;20043;-79
2022/03/10 08:50:24;;;;;;;27.67;11.23;;;5.40;92.30;;;;;;4946793;29;20046;-78
2022/03/10 08:52:50;;;;;;;27.80;11.32;;;5.50;91.30;;;;;;4951335;29;20345;-79
2022/03/10 08:55:16;;;;;;;30.42;12.15;;;5.60;89.00;;;;;;4966298;29;20055;-78
2022/03/10 08:57:42;;;;;;;31.33;11.48;;;5.70;85.50;;;;;;4962394;29;20048;-79
2022/03/10 09:00:11;;;;;;;29.27;11.40;;;6.00;85.40;;;;;;4963955;29;20027;-77
2022/03/10 09:02:53;;;;;;;25.98;10.73;;;6.00;83.90;;;;;;4943257;29;20365;-81
2022/03/10 09:05:18;;;;;;;27.83;10.52;;;6.00;80.50;;;;;;4942018;29;20035;-78
2022/03/10 09:07:44;;;;;;;28.15;10.02;;;6.10;79.40;;;;;;4961873;29;20047;-76
2022/03/10 09:10:11;;;;;;;28.92;11.73;;;6.10;79.20;;;;;;4962176;29;20032;-78
2022/03/10 09:12:38;;;;;;;25.33;10.40;;;6.10;78.80;;;;;;4938020;29;20126;-80
2022/03/10 09:15:05;;;;;;;32.08;12.52;;;6.20;78.30;;;;;;4933603;29;20587;-78
2022/03/10 09:17:31;;;;;;;32.42;10.60;;;6.30;77.70;;;;;;4953653;29;20279;-81
2022/03/10 09:19:57;;;;;;;29.70;11.35;;;6.40;79.50;;;;;;4936415;29;20032;-79
2022/03/10 09:22:25;;;;;;;29.17;11.15;;;6.60;78.00;;;;;;4941975;29;20067;-78
2022/03/10 09:24:51;;;;;;;23.17;9.25;;;6.70;78.40;;;;;;4943797;29;20020;-78
2022/03/10 09:27:17;;;;;;;32.05;11.70;;;6.80;76.40;;;;;;4954419;29;20460;-79
2022/03/10 09:29:43;;;;;;;26.73;10.60;;;6.90;76.10;;;;;;4952962;29;20035;-78
2022/03/10 09:32:09;;;;;;;26.70;10.15;;;7.00;74.80;;;;;;4940378;29;20031;-79
2022/03/10 09:34:40;;;;;;;39.22;11.63;;;7.20;75.70;;;;;;4947197;29;20012;-79
2022/03/10 09:37:06;;;;;;;28.67;11.93;;;7.30;74.70;;;;;;4958875;29;20022;-79
2022/03/10 09:39:32;;;;;;;31.42;11.93;;;7.30;75.20;;;;;;4952642;29;20291;-82
2022/03/10 09:42:03;;;;;;;32.97;11.35;;;7.40;76.30;;;;;;4953714;29;20487;-80
2022/03/10 09:44:33;;;;;;;31.48;12.38;;;7.40;75.30;;;;;;4939940;29;20051;-80
2022/03/10 09:47:03;;;;;;;29.42;11.75;;;7.60;74.20;;;;;;4959201;29;20605;-79
2022/03/10 09:49:33;;;;;;;31.70;11.65;;;7.70;74.10;;;;;;4946774;29;20389;-80
2022/03/10 09:51:59;;;;;;;33.55;13.75;;;7.70;74.90;;;;;;4933995;29;20020;-82
2022/03/10 09:54:25;;;;;;;31.42;10.43;;;7.90;72.50;;;;;;4936721;29;20104;-78
2022/03/10 09:56:53;;;;;;;27.30;11.63;;;7.90;72.80;;;;;;4937853;29;20049;-80
2022/03/10 09:59:25;;;;;;;30.00;11.30;;;8.10;70.70;;;;;;4939474;29;20027;-80
2022/03/10 10:01:50;;;;;;;28.92;11.88;;;8.30;70.20;;;;;;4958344;28;20038;-82
2022/03/10 10:04:20;;;;;;;25.52;10.77;;;8.40;68.10;;;;;;4946949;29;20028;-82
2022/03/10 10:07:04;;;;;;;33.50;10.35;;;8.50;68.00;;;;;;4953181;29;20032;-80
2022/03/10 10:09:52;;;;;;;26.83;9.25;;;8.50;66.70;;;;;;4954578;28;20063;-81
2022/03/10 10:12:22;;;;;;;27.33;9.95;;;8.60;65.60;;;;;;4950852;29;20160;-80
2022/03/10 10:14:48;;;;;;;20.35;7.63;;;8.60;65.60;;;;;;4937649;29;20032;-78
2022/03/10 10:17:14;;;;;;;20.35;8.27;;;8.70;65.00;;;;;;4922896;29;20448;-81
2022/03/10 10:19:41;;;;;;;21.83;8.40;;;8.80;64.90;;;;;;4919026;29;20437;-80
2022/03/10 10:22:12;;;;;;;23.27;9.32;;;8.80;64.30;;;;;;4915848;29;20498;-79
2022/03/10 10:24:38;;;;;;;21.38;8.70;;;9.30;64.30;;;;;;4924114;29;20092;-79
2022/03/10 10:27:19;;;;;;;22.35;9.75;;;9.00;62.70;;;;;;4939345;29;20413;-78
2022/03/10 10:29:49;;;;;;;19.45;8.40;;;9.00;62.80;;;;;;4939712;28;20024;-78
2022/03/10 10:32:34;;;;;;;24.35;9.40;;;9.10;62.20;;;;;;4907753;29;20035;-78
2022/03/10 10:35:03;;;;;;;24.45;9.80;;;9.20;63.30;;;;;;4909968;29;20508;-80
2022/03/10 10:37:30;;;;;;;24.98;10.57;;;9.40;62.50;;;;;;4909853;29;20316;-78
2022/03/10 10:39:56;;;;;;;20.40;8.88;;;9.40;61.90;;;;;;4908346;29;20127;-79
2022/03/10 10:42:28;;;;;;;22.63;8.13;;;9.50;61.50;;;;;;4910121;29;20052;-79
2022/03/10 10:44:58;;;;;;;21.90;9.35;;;9.50;60.80;;;;;;4909980;29;20486;-78
2022/03/10 10:47:26;;;;;;;24.73;9.75;;;9.50;60.70;;;;;;4909351;29;20028;-78
2022/03/10 10:50:05;;;;;;;21.58;9.05;;;9.60;60.10;;;;;;4940479;28;20035;-78
2022/03/10 10:52:41;;;;;;;21.05;8.70;;;9.70;60.10;;;;;;4940675;28;20160;-78
2022/03/10 10:55:11;;;;;;;25.58;9.10;;;9.80;60.80;;;;;;4909867;29;20571;-79
2022/03/10 10:57:38;;;;;;;18.70;8.05;;;10.00;60.70;;;;;;4913762;29;20028;-79
2022/03/10 11:00:08;;;;;;;22.60;9.57;;;10.10;60.00;;;;;;4913472;29;20433;-79
2022/03/10 11:02:36;;;;;;;25.38;9.30;;;10.10;59.70;;;;;;4912689;29;20075;-79
2022/03/10 11:05:03;;;;;;;23.40;10.00;;;10.20;60.00;;;;;;4913920;29;20092;-79
2022/03/10 11:07:31;;;;;;;25.70;10.20;;;10.20;59.80;;;;;;4912199;29;20036;-78
2022/03/10 11:09:57;;;;;;;23.85;9.00;;;10.40;60.90;;;;;;4913697;29;20071;-78
2022/03/10 11:12:23;;;;;;;23.25;8.98;;;10.40;58.40;;;;;;4913767;29;20059;-79
2022/03/10 11:14:49;;;;;;;21.25;9.35;;;10.40;57.60;;;;;;4912387;29;20194;-79
2022/03/10 11:17:18;;;;;;;17.92;8.18;;;11.90;58.80;;;;;;4912384;29;20423;-79
2022/03/10 11:19:46;;;;;;;21.88;9.15;;;10.70;58.60;;;;;;4912700;29;20036;-79
2022/03/10 11:22:33;;;;;;;22.30;9.85;;;10.90;58.70;;;;;;4910398;29;20043;-78
2022/03/10 11:25:24;;;;;;;20.92;9.93;;;10.90;58.20;;;;;;4894831;29;20512;-78
2022/03/10 11:28:02;;;;;;;22.70;8.85;;;11.00;58.10;;;;;;4909272;29;20032;-79
2022/03/10 11:30:29;;;;;;;19.25;8.82;;;11.00;57.10;;;;;;4908918;29;20048;-80
2022/03/10 11:33:09;;;;;;;23.23;9.10;;;11.00;57.10;;;;;;4907312;29;20059;-79
2022/03/10 11:35:42;;;;;;;22.75;10.48;;;11.10;57.70;;;;;;4911451;29;20110;-79
2022/03/10 11:38:10;;;;;;;25.50;9.77;;;11.20;56.70;;;;;;4913787;29;20465;-79
2022/03/10 11:40:46;;;;;;;26.38;10.68;;;11.30;57.10;;;;;;4911997;29;20036;-78
2022/03/10 11:43:27;;;;;;;26.02;10.50;;;11.50;56.90;;;;;;4911299;29;20048;-79
2022/03/10 11:46:31;;;;;;;25.92;11.43;;;11.60;55.80;;;;;;4913734;29;20024;-78
2022/03/10 11:49:14;;;;;;;30.92;11.38;;;11.60;55.10;;;;;;4912721;29;20319;-78
2022/03/10 11:51:52;;;;;;;26.45;11.30;;;11.50;54.70;;;;;;4913398;29;20043;-78
2022/03/10 11:54:35;;;;;;;20.90;8.45;;;11.50;55.00;;;;;;4912412;29;20028;-79
2022/03/10 11:57:05;;;;;;;27.30;9.18;;;11.60;54.70;;;;;;4911286;29;20028;-78
2022/03/10 11:59:39;;;;;;;28.17;11.38;;;11.80;55.80;;;;;;4913089;29;20020;-78
2022/03/10 12:02:07;;;;;;;23.13;8.65;;;11.90;53.90;;;;;;4912873;29;20028;-77
2022/03/10 12:04:36;;;;;;;28.48;10.68;;;11.90;54.30;;;;;;4912814;29;20107;-79
2022/03/10 12:07:03;;;;;;;27.17;11.38;;;12.00;53.70;;;;;;4913256;29;20024;-78
2022/03/10 12:09:33;;;;;;;28.52;11.75;;;12.20;54.20;;;;;;4910528;29;20036;-78
2022/03/10 12:12:24;;;;;;;21.20;9.25;;;12.20;53.50;;;;;;4911704;29;20021;-78
2022/03/10 12:14:55;;;;;;;23.40;9.55;;;12.30;53.40;;;;;;4912751;29;20505;-78
2022/03/10 12:17:44;;;;;;;25.95;9.43;;;12.50;54.00;;;;;;4911852;29;20028;-78
2022/03/10 12:20:21;;;;;;;23.20;10.38;;;12.50;53.10;;;;;;4924814;29;20060;-80
2022/03/10 12:23:23;;;;;;;25.05;11.75;;;12.50;53.20;;;;;;4925664;29;20127;-79
2022/03/10 12:25:59;;;;;;;28.35;13.05;;;12.70;54.20;;;;;;4910427;29;20034;-78
2022/03/10 12:28:31;;;;;;;26.60;10.88;;;13.50;53.60;;;;;;4910445;29;20055;-78
2022/03/10 12:31:16;;;;;;;25.27;12.02;;;13.90;51.60;;;;;;4910549;29;20071;-79
2022/03/10 12:33:54;;;;;;;20.00;9.65;;;13.80;51.10;;;;;;4925562;29;20119;-78
2022/03/10 12:36:27;;;;;;;22.98;11.70;;;14.50;51.80;;;;;;4911929;29;20040;-79
2022/03/10 12:38:53;;;;;;;24.60;11.40;;;15.20;50.70;;;;;;4916297;29;20028;-79
2022/03/10 12:41:19;;;;;;;23.20;9.95;;;15.60;50.20;;;;;;4915748;29;20032;-81